sensor_id;sensor_type;location;lat;lon;timestamp;P1;durP1;ratioP1;P2;durP2;ratioP2
32918;SDS011;19280;42.646;21.150;2023-03-20T00:01:12;53.55;;;26.25;;
32918;SDS011;19280;42.646;21.150;2023-03-20T00:03:39;57.53;;;27.02;;
32918;SDS011;19280;42.646;21.150;2023-03-20T00:06:11;54.88;;;26.45;;
32918;SDS011;19280;42.646;21.150;2023-03-20T00:11:03;60.20;;;28.60;;
32918;SDS011;19280;42.646;21.150;2023-03-20T00:13:29;56.47;;;26.13;;
32918;SDS011;19280;42.646;21.150;2023-03-20T00:15:55;72.22;;;32.97;;
32918;SDS011;19280;42.646;21.150;2023-03-20T00:18:22;67.10;;;31.80;;
32918;SDS011;19280;42.646;21.150;2023-03-20T00:20:49;69.88;;;31.88;;
32918;SDS011;19280;42.646;21.150;2023-03-20T00:23:15;76.65;;;35.88;;
32918;SDS011;19280;42.646;21.150;2023-03-20T00:25:42;73.93;;;38.80;;
32918;SDS011;19280;42.646;21.150;2023-03-20T00:28:26;85.57;;;38.50;;
32918;SDS011;19280;42.646;21.150;2023-03-20T00:30:53;101.55;;;44.72;;
32918;SDS011;19280;42.646;21.150;2023-03-20T00:33:19;96.25;;;44.88;;
32918;SDS011;19280;42.646;21.150;2023-03-20T00:35:45;84.97;;;41.22;;
32918;SDS011;19280;42.646;21.150;2023-03-20T00:38:11;79.93;;;37.42;;
32918;SDS011;19280;42.646;21.150;2023-03-20T00:40:37;93.90;;;44.10;;
32918;SDS011;19280;42.646;21.150;2023-03-20T00:43:03;84.78;;;43.85;;
32918;SDS011;19280;42.646;21.150;2023-03-20T00:45:30;81.93;;;41.78;;
32918;SDS011;19280;42.646;21.150;2023-03-20T00:47:56;79.20;;;38.00;;
32918;SDS011;19280;42.646;21.150;2023-03-20T00:50:24;74.82;;;36.42;;
32918;SDS011;19280;42.646;21.150;2023-03-20T00:52:51;71.07;;;36.63;;
32918;SDS011;19280;42.646;21.150;2023-03-20T00:55:17;68.22;;;36.17;;
32918;SDS011;19280;42.646;21.150;2023-03-20T01:02:40;69.25;;;36.83;;
32918;SDS011;19280;42.646;21.150;2023-03-20T01:05:06;75.35;;;35.90;;
32918;SDS011;19280;42.646;21.150;2023-03-20T01:07:32;65.68;;;35.10;;
32918;SDS011;19280;42.646;21.150;2023-03-20T01:09:58;61.38;;;33.22;;
32918;SDS011;19280;42.646;21.150;2023-03-20T01:12:24;74.43;;;34.55;;
32918;SDS011;19280;42.646;21.150;2023-03-20T01:14:51;75.28;;;36.15;;
32918;SDS011;19280;42.646;21.150;2023-03-20T01:17:19;62.40;;;30.77;;
32918;SDS011;19280;42.646;21.150;2023-03-20T01:19:45;76.68;;;31.35;;
32918;SDS011;19280;42.646;21.150;2023-03-20T01:22:11;54.50;;;28.10;;
32918;SDS011;19280;42.646;21.150;2023-03-20T01:24:38;57.78;;;27.25;;
32918;SDS011;19280;42.646;21.150;2023-03-20T01:27:04;46.33;;;22.77;;
32918;SDS011;19280;42.646;21.150;2023-03-20T01:29:31;42.30;;;22.42;;
32918;SDS011;19280;42.646;21.150;2023-03-20T01:31:57;40.88;;;21.10;;
32918;SDS011;19280;42.646;21.150;2023-03-20T01:34:23;43.28;;;21.30;;
32918;SDS011;19280;42.646;21.150;2023-03-20T01:36:53;38.80;;;20.38;;
32918;SDS011;19280;42.646;21.150;2023-03-20T01:39:19;43.22;;;22.38;;
32918;SDS011;19280;42.646;21.150;2023-03-20T01:41:46;42.38;;;20.58;;
32918;SDS011;19280;42.646;21.150;2023-03-20T01:44:17;45.00;;;21.23;;
32918;SDS011;19280;42.646;21.150;2023-03-20T01:46:44;47.42;;;20.55;;
32918;SDS011;19280;42.646;21.150;2023-03-20T01:51:49;34.03;;;17.80;;
32918;SDS011;19280;42.646;21.150;2023-03-20T01:56:46;37.40;;;19.80;;
32918;SDS011;19280;42.646;21.150;2023-03-20T01:59:19;41.78;;;19.75;;
32918;SDS011;19280;42.646;21.150;2023-03-20T02:01:46;40.05;;;19.58;;
32918;SDS011;19280;42.646;21.150;2023-03-20T02:04:12;36.08;;;18.02;;
32918;SDS011;19280;42.646;21.150;2023-03-20T02:06:39;35.83;;;17.65;;
32918;SDS011;19280;42.646;21.150;2023-03-20T02:09:06;35.97;;;18.33;;
32918;SDS011;19280;42.646;21.150;2023-03-20T02:11:32;29.65;;;16.25;;
32918;SDS011;19280;42.646;21.150;2023-03-20T02:13:59;32.90;;;16.58;;
32918;SDS011;19280;42.646;21.150;2023-03-20T02:16:25;26.80;;;14.50;;
32918;SDS011;19280;42.646;21.150;2023-03-20T02:18:52;28.75;;;14.75;;
32918;SDS011;19280;42.646;21.150;2023-03-20T02:35:04;31.45;;;16.70;;
32918;SDS011;19280;42.646;21.150;2023-03-20T02:42:55;63.15;;;25.92;;
32918;SDS011;19280;42.646;21.150;2023-03-20T02:45:35;28.63;;;14.93;;
32918;SDS011;19280;42.646;21.150;2023-03-20T02:48:08;35.78;;;18.08;;
32918;SDS011;19280;42.646;21.150;2023-03-20T02:56:01;47.65;;;22.55;;
32918;SDS011;19280;42.646;21.150;2023-03-20T03:08:45;44.33;;;21.83;;
32918;SDS011;19280;42.646;21.150;2023-03-20T03:11:12;45.13;;;21.45;;
32918;SDS011;19280;42.646;21.150;2023-03-20T03:13:40;47.42;;;21.35;;
32918;SDS011;19280;42.646;21.150;2023-03-20T03:16:09;46.17;;;23.00;;
32918;SDS011;19280;42.646;21.150;2023-03-20T03:18:37;44.22;;;22.10;;
32918;SDS011;19280;42.646;21.150;2023-03-20T03:21:03;46.13;;;22.58;;
32918;SDS011;19280;42.646;21.150;2023-03-20T03:23:35;50.30;;;24.25;;
32918;SDS011;19280;42.646;21.150;2023-03-20T03:26:05;46.63;;;23.30;;
32918;SDS011;19280;42.646;21.150;2023-03-20T03:31:27;52.05;;;26.48;;
32918;SDS011;19280;42.646;21.150;2023-03-20T03:33:55;66.85;;;30.27;;
32918;SDS011;19280;42.646;21.150;2023-03-20T03:36:40;55.03;;;28.27;;
32918;SDS011;19280;42.646;21.150;2023-03-20T03:39:14;52.92;;;27.08;;
32918;SDS011;19280;42.646;21.150;2023-03-20T03:41:44;60.78;;;27.90;;
32918;SDS011;19280;42.646;21.150;2023-03-20T03:44:12;61.13;;;26.75;;
32918;SDS011;19280;42.646;21.150;2023-03-20T03:46:42;57.33;;;26.90;;
32918;SDS011;19280;42.646;21.150;2023-03-20T03:49:09;54.70;;;26.55;;
32918;SDS011;19280;42.646;21.150;2023-03-20T03:51:37;53.05;;;25.50;;
32918;SDS011;19280;42.646;21.150;2023-03-20T03:54:11;64.78;;;26.52;;
32918;SDS011;19280;42.646;21.150;2023-03-20T03:56:39;52.17;;;24.95;;
32918;SDS011;19280;42.646;21.150;2023-03-20T03:59:18;53.17;;;25.77;;
32918;SDS011;19280;42.646;21.150;2023-03-20T04:01:45;49.30;;;24.20;;
32918;SDS011;19280;42.646;21.150;2023-03-20T04:04:12;55.63;;;25.38;;
32918;SDS011;19280;42.646;21.150;2023-03-20T04:06:40;39.67;;;20.35;;
32918;SDS011;19280;42.646;21.150;2023-03-20T04:09:06;38.00;;;19.15;;
32918;SDS011;19280;42.646;21.150;2023-03-20T04:11:32;38.60;;;18.92;;
32918;SDS011;19280;42.646;21.150;2023-03-20T04:13:59;42.00;;;21.25;;
32918;SDS011;19280;42.646;21.150;2023-03-20T04:16:26;49.92;;;23.45;;
32918;SDS011;19280;42.646;21.150;2023-03-20T04:18:52;49.90;;;24.90;;
32918;SDS011;19280;42.646;21.150;2023-03-20T04:21:20;35.72;;;19.40;;
32918;SDS011;19280;42.646;21.150;2023-03-20T04:23:46;31.10;;;16.05;;
32918;SDS011;19280;42.646;21.150;2023-03-20T04:26:12;29.73;;;14.77;;
32918;SDS011;19280;42.646;21.150;2023-03-20T04:28:38;32.45;;;17.33;;
32918;SDS011;19280;42.646;21.150;2023-03-20T04:31:04;30.40;;;17.13;;
32918;SDS011;19280;42.646;21.150;2023-03-20T04:33:31;36.85;;;15.88;;
32918;SDS011;19280;42.646;21.150;2023-03-20T04:35:57;30.85;;;17.25;;
32918;SDS011;19280;42.646;21.150;2023-03-20T04:38:23;48.88;;;23.52;;
32918;SDS011;19280;42.646;21.150;2023-03-20T04:40:49;42.53;;;22.30;;
32918;SDS011;19280;42.646;21.150;2023-03-20T04:43:16;34.65;;;18.05;;
32918;SDS011;19280;42.646;21.150;2023-03-20T04:45:42;37.72;;;17.77;;
32918;SDS011;19280;42.646;21.150;2023-03-20T04:48:08;32.42;;;17.70;;
32918;SDS011;19280;42.646;21.150;2023-03-20T04:50:34;37.15;;;17.92;;
32918;SDS011;19280;42.646;21.150;2023-03-20T04:53:00;41.30;;;18.70;;
32918;SDS011;19280;42.646;21.150;2023-03-20T04:55:26;35.88;;;17.45;;
32918;SDS011;19280;42.646;21.150;2023-03-20T04:57:52;39.60;;;19.33;;
32918;SDS011;19280;42.646;21.150;2023-03-20T05:00:18;35.85;;;17.73;;
32918;SDS011;19280;42.646;21.150;2023-03-20T05:02:44;34.83;;;15.98;;
32918;SDS011;19280;42.646;21.150;2023-03-20T05:05:10;35.72;;;16.90;;
32918;SDS011;19280;42.646;21.150;2023-03-20T05:07:36;31.17;;;16.05;;
32918;SDS011;19280;42.646;21.150;2023-03-20T05:10:03;35.17;;;17.80;;
32918;SDS011;19280;42.646;21.150;2023-03-20T05:12:29;38.30;;;19.33;;
32918;SDS011;19280;42.646;21.150;2023-03-20T05:14:55;39.78;;;19.45;;
32918;SDS011;19280;42.646;21.150;2023-03-20T05:17:22;39.70;;;18.67;;
32918;SDS011;19280;42.646;21.150;2023-03-20T05:19:48;33.05;;;19.00;;
32918;SDS011;19280;42.646;21.150;2023-03-20T05:22:15;36.78;;;19.02;;
32918;SDS011;19280;42.646;21.150;2023-03-20T05:24:41;38.22;;;18.77;;
32918;SDS011;19280;42.646;21.150;2023-03-20T05:27:07;40.53;;;18.33;;
32918;SDS011;19280;42.646;21.150;2023-03-20T05:29:33;37.97;;;20.25;;
32918;SDS011;19280;42.646;21.150;2023-03-20T05:32:00;41.50;;;19.15;;
32918;SDS011;19280;42.646;21.150;2023-03-20T05:34:26;43.70;;;20.38;;
32918;SDS011;19280;42.646;21.150;2023-03-20T05:36:52;35.75;;;19.63;;
32918;SDS011;19280;42.646;21.150;2023-03-20T05:39:18;47.85;;;18.65;;
32918;SDS011;19280;42.646;21.150;2023-03-20T05:41:44;40.30;;;20.10;;
32918;SDS011;19280;42.646;21.150;2023-03-20T05:44:11;45.30;;;20.13;;
32918;SDS011;19280;42.646;21.150;2023-03-20T05:46:37;38.13;;;18.92;;
32918;SDS011;19280;42.646;21.150;2023-03-20T05:49:03;34.63;;;19.55;;
32918;SDS011;19280;42.646;21.150;2023-03-20T05:51:29;43.47;;;21.88;;
32918;SDS011;19280;42.646;21.150;2023-03-20T05:53:55;41.30;;;21.58;;
32918;SDS011;19280;42.646;21.150;2023-03-20T05:56:21;40.00;;;21.67;;
32918;SDS011;19280;42.646;21.150;2023-03-20T05:58:47;57.28;;;23.50;;
32918;SDS011;19280;42.646;21.150;2023-03-20T06:01:13;47.10;;;23.13;;
32918;SDS011;19280;42.646;21.150;2023-03-20T06:03:42;54.78;;;24.27;;
32918;SDS011;19280;42.646;21.150;2023-03-20T06:06:09;43.17;;;22.85;;
32918;SDS011;19280;42.646;21.150;2023-03-20T06:08:35;41.13;;;22.95;;
32918;SDS011;19280;42.646;21.150;2023-03-20T06:11:02;55.58;;;24.30;;
32918;SDS011;19280;42.646;21.150;2023-03-20T06:13:28;51.65;;;24.23;;
32918;SDS011;19280;42.646;21.150;2023-03-20T06:15:54;55.03;;;25.83;;
32918;SDS011;19280;42.646;21.150;2023-03-20T06:18:20;59.88;;;26.02;;
32918;SDS011;19280;42.646;21.150;2023-03-20T06:23:22;44.55;;;24.10;;
32918;SDS011;19280;42.646;21.150;2023-03-20T06:25:49;58.45;;;27.40;;
32918;SDS011;19280;42.646;21.150;2023-03-20T06:28:15;144.25;;;70.68;;
32918;SDS011;19280;42.646;21.150;2023-03-20T06:30:41;149.30;;;80.10;;
32918;SDS011;19280;42.646;21.150;2023-03-20T06:33:08;93.95;;;52.17;;
32918;SDS011;19280;42.646;21.150;2023-03-20T06:35:34;85.07;;;35.17;;
32918;SDS011;19280;42.646;21.150;2023-03-20T06:38:00;69.63;;;29.38;;
32918;SDS011;19280;42.646;21.150;2023-03-20T06:40:26;60.90;;;28.27;;
32918;SDS011;19280;42.646;21.150;2023-03-20T06:42:53;54.10;;;25.88;;
32918;SDS011;19280;42.646;21.150;2023-03-20T06:45:25;50.55;;;25.23;;
32918;SDS011;19280;42.646;21.150;2023-03-20T06:47:51;41.92;;;23.05;;
32918;SDS011;19280;42.646;21.150;2023-03-20T06:50:18;42.35;;;23.25;;
32918;SDS011;19280;42.646;21.150;2023-03-20T06:52:44;55.63;;;23.58;;
32918;SDS011;19280;42.646;21.150;2023-03-20T06:55:11;44.08;;;23.52;;
32918;SDS011;19280;42.646;21.150;2023-03-20T06:57:37;67.68;;;27.67;;
32918;SDS011;19280;42.646;21.150;2023-03-20T07:00:04;52.15;;;28.13;;
32918;SDS011;19280;42.646;21.150;2023-03-20T07:02:30;71.80;;;29.92;;
32918;SDS011;19280;42.646;21.150;2023-03-20T07:04:56;50.30;;;24.63;;
32918;SDS011;19280;42.646;21.150;2023-03-20T07:07:22;35.47;;;21.17;;
32918;SDS011;19280;42.646;21.150;2023-03-20T07:09:49;33.65;;;20.90;;
32918;SDS011;19280;42.646;21.150;2023-03-20T07:12:15;35.72;;;20.98;;
32918;SDS011;19280;42.646;21.150;2023-03-20T07:14:44;33.55;;;20.02;;
32918;SDS011;19280;42.646;21.150;2023-03-20T07:17:10;39.08;;;21.20;;
32918;SDS011;19280;42.646;21.150;2023-03-20T07:19:37;30.73;;;19.63;;
32918;SDS011;19280;42.646;21.150;2023-03-20T07:22:04;30.25;;;18.60;;
32918;SDS011;19280;42.646;21.150;2023-03-20T07:24:31;35.90;;;19.83;;
32918;SDS011;19280;42.646;21.150;2023-03-20T07:26:57;30.05;;;17.80;;
32918;SDS011;19280;42.646;21.150;2023-03-20T07:29:23;28.45;;;17.63;;
32918;SDS011;19280;42.646;21.150;2023-03-20T07:31:49;28.08;;;17.50;;
32918;SDS011;19280;42.646;21.150;2023-03-20T07:34:16;30.70;;;15.45;;
32918;SDS011;19280;42.646;21.150;2023-03-20T07:36:42;21.30;;;14.73;;
32918;SDS011;19280;42.646;21.150;2023-03-20T07:39:08;23.65;;;14.85;;
32918;SDS011;19280;42.646;21.150;2023-03-20T07:41:34;26.27;;;16.83;;
32918;SDS011;19280;42.646;21.150;2023-03-20T07:44:01;33.05;;;16.40;;
32918;SDS011;19280;42.646;21.150;2023-03-20T07:46:27;25.85;;;15.75;;
32918;SDS011;19280;42.646;21.150;2023-03-20T07:48:53;26.75;;;15.77;;
32918;SDS011;19280;42.646;21.150;2023-03-20T07:51:22;31.25;;;16.38;;
32918;SDS011;19280;42.646;21.150;2023-03-20T07:53:48;28.75;;;16.67;;
32918;SDS011;19280;42.646;21.150;2023-03-20T07:56:14;28.85;;;16.27;;
32918;SDS011;19280;42.646;21.150;2023-03-20T07:58:40;32.97;;;16.40;;
32918;SDS011;19280;42.646;21.150;2023-03-20T08:01:06;21.27;;;14.98;;
32918;SDS011;19280;42.646;21.150;2023-03-20T08:03:32;28.45;;;15.00;;
32918;SDS011;19280;42.646;21.150;2023-03-20T08:05:58;25.13;;;14.05;;
32918;SDS011;19280;42.646;21.150;2023-03-20T08:08:25;22.15;;;14.13;;
32918;SDS011;19280;42.646;21.150;2023-03-20T08:10:51;25.17;;;13.85;;
32918;SDS011;19280;42.646;21.150;2023-03-20T08:13:17;33.28;;;13.00;;
32918;SDS011;19280;42.646;21.150;2023-03-20T08:15:45;21.17;;;13.10;;
32918;SDS011;19280;42.646;21.150;2023-03-20T08:18:11;19.98;;;13.18;;
32918;SDS011;19280;42.646;21.150;2023-03-20T08:20:37;24.55;;;14.32;;
32918;SDS011;19280;42.646;21.150;2023-03-20T08:23:03;24.73;;;13.63;;
32918;SDS011;19280;42.646;21.150;2023-03-20T08:25:29;22.40;;;13.23;;
32918;SDS011;19280;42.646;21.150;2023-03-20T08:27:57;22.77;;;14.35;;
32918;SDS011;19280;42.646;21.150;2023-03-20T08:30:24;26.77;;;17.23;;
32918;SDS011;19280;42.646;21.150;2023-03-20T08:32:51;25.63;;;15.85;;
32918;SDS011;19280;42.646;21.150;2023-03-20T08:35:17;30.52;;;18.02;;
32918;SDS011;19280;42.646;21.150;2023-03-20T08:37:43;25.00;;;16.88;;
32918;SDS011;19280;42.646;21.150;2023-03-20T08:40:09;23.20;;;14.40;;
32918;SDS011;19280;42.646;21.150;2023-03-20T08:42:35;22.85;;;14.98;;
32918;SDS011;19280;42.646;21.150;2023-03-20T08:45:01;19.95;;;12.00;;
32918;SDS011;19280;42.646;21.150;2023-03-20T08:47:27;26.05;;;12.98;;
32918;SDS011;19280;42.646;21.150;2023-03-20T08:49:53;23.58;;;11.73;;
32918;SDS011;19280;42.646;21.150;2023-03-20T08:52:20;27.33;;;13.80;;
32918;SDS011;19280;42.646;21.150;2023-03-20T08:54:46;26.05;;;13.30;;
32918;SDS011;19280;42.646;21.150;2023-03-20T08:57:12;22.60;;;12.68;;
32918;SDS011;19280;42.646;21.150;2023-03-20T08:59:38;23.55;;;13.48;;
32918;SDS011;19280;42.646;21.150;2023-03-20T09:02:04;30.25;;;15.70;;
32918;SDS011;19280;42.646;21.150;2023-03-20T09:04:30;26.70;;;16.02;;
32918;SDS011;19280;42.646;21.150;2023-03-20T09:06:56;27.35;;;15.57;;
32918;SDS011;19280;42.646;21.150;2023-03-20T09:09:22;25.65;;;13.68;;
32918;SDS011;19280;42.646;21.150;2023-03-20T09:11:53;25.30;;;14.97;;
32918;SDS011;19280;42.646;21.150;2023-03-20T09:14:19;24.17;;;14.82;;
32918;SDS011;19280;42.646;21.150;2023-03-20T09:16:45;25.35;;;13.82;;
32918;SDS011;19280;42.646;21.150;2023-03-20T09:19:11;24.27;;;12.52;;
32918;SDS011;19280;42.646;21.150;2023-03-20T09:21:37;24.30;;;12.25;;
32918;SDS011;19280;42.646;21.150;2023-03-20T09:24:04;22.23;;;13.27;;
32918;SDS011;19280;42.646;21.150;2023-03-20T09:26:30;19.40;;;12.10;;
32918;SDS011;19280;42.646;21.150;2023-03-20T09:28:56;21.52;;;11.48;;
32918;SDS011;19280;42.646;21.150;2023-03-20T09:31:22;21.50;;;12.65;;
32918;SDS011;19280;42.646;21.150;2023-03-20T09:33:48;20.85;;;12.38;;
32918;SDS011;19280;42.646;21.150;2023-03-20T09:36:14;16.13;;;11.02;;
32918;SDS011;19280;42.646;21.150;2023-03-20T09:38:40;15.55;;;10.55;;
32918;SDS011;19280;42.646;21.150;2023-03-20T09:41:11;18.55;;;11.20;;
32918;SDS011;19280;42.646;21.150;2023-03-20T09:48:36;14.25;;;8.70;;
32918;SDS011;19280;42.646;21.150;2023-03-20T09:53:38;16.75;;;8.70;;
32918;SDS011;19280;42.646;21.150;2023-03-20T09:56:07;13.18;;;9.10;;
32918;SDS011;19280;42.646;21.150;2023-03-20T09:58:35;15.68;;;9.35;;
32918;SDS011;19280;42.646;21.150;2023-03-20T10:01:03;15.18;;;9.05;;
32918;SDS011;19280;42.646;21.150;2023-03-20T10:03:50;13.48;;;8.88;;
32918;SDS011;19280;42.646;21.150;2023-03-20T10:06:17;13.65;;;8.43;;
32918;SDS011;19280;42.646;21.150;2023-03-20T10:08:44;14.25;;;7.40;;
32918;SDS011;19280;42.646;21.150;2023-03-20T10:19:37;12.23;;;6.88;;
32918;SDS011;19280;42.646;21.150;2023-03-20T10:22:24;7.70;;;5.30;;
32918;SDS011;19280;42.646;21.150;2023-03-20T10:24:55;10.85;;;5.43;;
32918;SDS011;19280;42.646;21.150;2023-03-20T10:27:24;7.85;;;5.03;;
32918;SDS011;19280;42.646;21.150;2023-03-20T10:33:01;7.43;;;4.35;;
32918;SDS011;19280;42.646;21.150;2023-03-20T10:35:38;7.45;;;4.60;;
32918;SDS011;19280;42.646;21.150;2023-03-20T10:40:39;9.18;;;4.80;;
32918;SDS011;19280;42.646;21.150;2023-03-20T10:45:42;6.88;;;4.70;;
32918;SDS011;19280;42.646;21.150;2023-03-20T10:48:13;9.87;;;4.60;;
32918;SDS011;19280;42.646;21.150;2023-03-20T10:50:42;10.82;;;4.53;;
32918;SDS011;19280;42.646;21.150;2023-03-20T10:53:14;13.80;;;5.53;;
32918;SDS011;19280;42.646;21.150;2023-03-20T10:55:43;12.80;;;5.97;;
32918;SDS011;19280;42.646;21.150;2023-03-20T11:00:39;12.02;;;4.78;;
32918;SDS011;19280;42.646;21.150;2023-03-20T11:03:05;8.30;;;4.18;;
32918;SDS011;19280;42.646;21.150;2023-03-20T11:05:35;8.32;;;4.03;;
32918;SDS011;19280;42.646;21.150;2023-03-20T11:10:28;8.82;;;4.40;;
32918;SDS011;19280;42.646;21.150;2023-03-20T11:12:56;6.97;;;4.72;;
32918;SDS011;19280;42.646;21.150;2023-03-20T11:15:26;11.73;;;5.47;;
32918;SDS011;19280;42.646;21.150;2023-03-20T11:17:58;6.57;;;4.32;;
32918;SDS011;19280;42.646;21.150;2023-03-20T11:20:25;8.88;;;5.13;;
32918;SDS011;19280;42.646;21.150;2023-03-20T11:22:56;10.35;;;4.65;;
32918;SDS011;19280;42.646;21.150;2023-03-20T11:25:33;11.50;;;4.63;;
32918;SDS011;19280;42.646;21.150;2023-03-20T11:30:46;13.98;;;6.10;;
32918;SDS011;19280;42.646;21.150;2023-03-20T11:33:13;8.38;;;4.40;;
32918;SDS011;19280;42.646;21.150;2023-03-20T11:35:43;13.55;;;5.20;;
32918;SDS011;19280;42.646;21.150;2023-03-20T11:38:17;10.90;;;4.93;;
32918;SDS011;19280;42.646;21.150;2023-03-20T11:40:44;11.50;;;4.47;;
32918;SDS011;19280;42.646;21.150;2023-03-20T11:43:22;13.15;;;5.18;;
32918;SDS011;19280;42.646;21.150;2023-03-20T11:45:55;14.10;;;5.20;;
32918;SDS011;19280;42.646;21.150;2023-03-20T11:48:35;12.95;;;5.03;;
32918;SDS011;19280;42.646;21.150;2023-03-20T11:51:02;9.68;;;4.50;;
32918;SDS011;19280;42.646;21.150;2023-03-20T11:58:27;10.82;;;4.32;;
32918;SDS011;19280;42.646;21.150;2023-03-20T12:00:54;14.48;;;4.80;;
32918;SDS011;19280;42.646;21.150;2023-03-20T12:06:14;7.15;;;4.13;;
32918;SDS011;19280;42.646;21.150;2023-03-20T12:08:40;10.73;;;4.53;;
32918;SDS011;19280;42.646;21.150;2023-03-20T12:11:29;8.18;;;4.10;;
32918;SDS011;19280;42.646;21.150;2023-03-20T12:13:56;6.05;;;4.30;;
32918;SDS011;19280;42.646;21.150;2023-03-20T12:16:24;9.00;;;5.32;;
32918;SDS011;19280;42.646;21.150;2023-03-20T12:18:54;32.75;;;20.50;;
32918;SDS011;19280;42.646;21.150;2023-03-20T12:21:24;188.70;;;142.13;;
32918;SDS011;19280;42.646;21.150;2023-03-20T12:24:01;139.05;;;99.32;;
32918;SDS011;19280;42.646;21.150;2023-03-20T12:31:43;20.27;;;7.63;;
32918;SDS011;19280;42.646;21.150;2023-03-20T12:37:12;19.80;;;6.43;;
32918;SDS011;19280;42.646;21.150;2023-03-20T12:39:44;15.77;;;4.65;;
32918;SDS011;19280;42.646;21.150;2023-03-20T12:44:45;9.93;;;4.20;;
32918;SDS011;19280;42.646;21.150;2023-03-20T12:47:27;7.30;;;5.03;;
32918;SDS011;19280;42.646;21.150;2023-03-20T12:50:09;10.57;;;5.13;;
32918;SDS011;19280;42.646;21.150;2023-03-20T13:00:25;9.80;;;4.70;;
32918;SDS011;19280;42.646;21.150;2023-03-20T13:10:21;8.20;;;4.78;;
32918;SDS011;19280;42.646;21.150;2023-03-20T13:23:16;6.82;;;4.63;;
32918;SDS011;19280;42.646;21.150;2023-03-20T13:38:47;11.85;;;5.07;;
32918;SDS011;19280;42.646;21.150;2023-03-20T13:41:14;16.13;;;5.47;;
32918;SDS011;19280;42.646;21.150;2023-03-20T13:43:48;10.93;;;4.40;;
32918;SDS011;19280;42.646;21.150;2023-03-20T13:46:21;8.90;;;4.00;;
32918;SDS011;19280;42.646;21.150;2023-03-20T13:48:49;5.37;;;3.73;;
32918;SDS011;19280;42.646;21.150;2023-03-20T13:56:51;19.63;;;5.80;;
32918;SDS011;19280;42.646;21.150;2023-03-20T14:02:09;9.48;;;4.65;;
32918;SDS011;19280;42.646;21.150;2023-03-20T14:04:36;8.80;;;4.57;;
32918;SDS011;19280;42.646;21.150;2023-03-20T14:07:25;13.88;;;5.50;;
32918;SDS011;19280;42.646;21.150;2023-03-20T14:09:50;28.30;;;21.80;;
32918;SDS011;19280;42.646;21.150;2023-03-20T14:12:18;11.70;;;8.38;;
32918;SDS011;19280;42.646;21.150;2023-03-20T14:14:53;13.40;;;5.72;;
32918;SDS011;19280;42.646;21.150;2023-03-20T14:19:49;10.63;;;4.18;;
32918;SDS011;19280;42.646;21.150;2023-03-20T14:22:17;11.75;;;4.78;;
32918;SDS011;19280;42.646;21.150;2023-03-20T14:24:51;9.40;;;4.95;;
32918;SDS011;19280;42.646;21.150;2023-03-20T14:27:23;18.55;;;5.90;;
32918;SDS011;19280;42.646;21.150;2023-03-20T14:29:50;11.05;;;6.03;;
32918;SDS011;19280;42.646;21.150;2023-03-20T14:34:47;14.30;;;5.18;;
32918;SDS011;19280;42.646;21.150;2023-03-20T14:40:02;20.73;;;6.07;;
32918;SDS011;19280;42.646;21.150;2023-03-20T14:49:57;19.63;;;5.13;;
32918;SDS011;19280;42.646;21.150;2023-03-20T14:54:54;12.85;;;4.72;;
32918;SDS011;19280;42.646;21.150;2023-03-20T14:57:30;19.92;;;4.90;;
32918;SDS011;19280;42.646;21.150;2023-03-20T14:59:58;10.82;;;4.88;;
32918;SDS011;19280;42.646;21.150;2023-03-20T15:02:29;14.20;;;4.75;;
32918;SDS011;19280;42.646;21.150;2023-03-20T15:04:59;9.80;;;4.75;;
32918;SDS011;19280;42.646;21.150;2023-03-20T15:07:29;10.02;;;4.82;;
32918;SDS011;19280;42.646;21.150;2023-03-20T15:09:57;9.03;;;4.50;;
32918;SDS011;19280;42.646;21.150;2023-03-20T15:12:29;8.82;;;4.47;;
32918;SDS011;19280;42.646;21.150;2023-03-20T15:15:00;11.32;;;4.10;;
32918;SDS011;19280;42.646;21.150;2023-03-20T15:17:33;22.35;;;4.47;;
32918;SDS011;19280;42.646;21.150;2023-03-20T15:22:32;7.90;;;5.15;;
32918;SDS011;19280;42.646;21.150;2023-03-20T15:24:58;17.52;;;6.40;;
32918;SDS011;19280;42.646;21.150;2023-03-20T15:27:25;20.80;;;8.30;;
32918;SDS011;19280;42.646;21.150;2023-03-20T15:29:54;24.27;;;11.52;;
32918;SDS011;19280;42.646;21.150;2023-03-20T15:32:20;25.98;;;13.18;;
32918;SDS011;19280;42.646;21.150;2023-03-20T15:34:49;21.23;;;11.13;;
32918;SDS011;19280;42.646;21.150;2023-03-20T15:39:47;30.15;;;7.57;;
32918;SDS011;19280;42.646;21.150;2023-03-20T15:42:14;31.08;;;8.27;;
32918;SDS011;19280;42.646;21.150;2023-03-20T15:44:42;33.60;;;7.45;;
32918;SDS011;19280;42.646;21.150;2023-03-20T15:49:39;27.20;;;9.30;;
32918;SDS011;19280;42.646;21.150;2023-03-20T15:54:50;35.88;;;9.60;;
32918;SDS011;19280;42.646;21.150;2023-03-20T15:57:23;26.35;;;9.25;;
32918;SDS011;19280;42.646;21.150;2023-03-20T15:59:50;35.97;;;11.57;;
32918;SDS011;19280;42.646;21.150;2023-03-20T16:02:16;37.08;;;11.35;;
32918;SDS011;19280;42.646;21.150;2023-03-20T16:04:46;22.30;;;9.48;;
32918;SDS011;19280;42.646;21.150;2023-03-20T16:07:26;27.30;;;9.45;;
32918;SDS011;19280;42.646;21.150;2023-03-20T16:09:53;31.65;;;11.95;;
32918;SDS011;19280;42.646;21.150;2023-03-20T16:12:19;39.78;;;16.40;;
32918;SDS011;19280;42.646;21.150;2023-03-20T16:14:47;55.47;;;14.85;;
32918;SDS011;19280;42.646;21.150;2023-03-20T16:17:14;48.97;;;17.88;;
32918;SDS011;19280;42.646;21.150;2023-03-20T16:19:41;62.50;;;15.75;;
32918;SDS011;19280;42.646;21.150;2023-03-20T16:27:09;58.90;;;20.35;;
32918;SDS011;19280;42.646;21.150;2023-03-20T16:29:35;69.32;;;21.02;;
32918;SDS011;19280;42.646;21.150;2023-03-20T16:32:06;47.45;;;20.42;;
32918;SDS011;19280;42.646;21.150;2023-03-20T16:34:38;43.60;;;19.13;;
32918;SDS011;19280;42.646;21.150;2023-03-20T16:37:06;41.92;;;19.48;;
32918;SDS011;19280;42.646;21.150;2023-03-20T16:39:32;60.13;;;23.33;;
32918;SDS011;19280;42.646;21.150;2023-03-20T16:42:07;50.33;;;21.35;;
32918;SDS011;19280;42.646;21.150;2023-03-20T16:44:35;35.65;;;17.65;;
32918;SDS011;19280;42.646;21.150;2023-03-20T16:52:11;135.00;;;60.78;;
32918;SDS011;19280;42.646;21.150;2023-03-20T16:54:37;418.67;;;206.27;;
32918;SDS011;19280;42.646;21.150;2023-03-20T16:57:07;449.13;;;206.38;;
32918;SDS011;19280;42.646;21.150;2023-03-20T16:59:36;380.52;;;170.55;;
32918;SDS011;19280;42.646;21.150;2023-03-20T17:02:03;324.83;;;148.00;;
32918;SDS011;19280;42.646;21.150;2023-03-20T17:04:36;291.38;;;130.27;;
32918;SDS011;19280;42.646;21.150;2023-03-20T17:09:33;215.85;;;85.43;;
32918;SDS011;19280;42.646;21.150;2023-03-20T17:12:00;167.05;;;56.88;;
32918;SDS011;19280;42.646;21.150;2023-03-20T17:14:27;174.35;;;66.15;;
32918;SDS011;19280;42.646;21.150;2023-03-20T17:16:54;155.45;;;57.42;;
32918;SDS011;19280;42.646;21.150;2023-03-20T17:19:21;213.38;;;88.95;;
32918;SDS011;19280;42.646;21.150;2023-03-20T17:21:48;192.05;;;82.10;;
32918;SDS011;19280;42.646;21.150;2023-03-20T17:24:16;177.57;;;78.65;;
32918;SDS011;19280;42.646;21.150;2023-03-20T17:26:47;138.65;;;58.28;;
32918;SDS011;19280;42.646;21.150;2023-03-20T17:29:15;139.70;;;51.20;;